ADDS METAR Data INFO
IDs: Format: Raw Decoded Include TAF

Data at: 1408 UTC 12 Dec 2017

KMML 121356Z AUTO 22007KT 10SM SCT022 OVC055 M07/M10 A3019 RMK AO2 SLP248 T10721100 FZRANO
KMML 121318Z AUTO 22005KT 10SM BKN020 BKN060 M09/M12 A3022 RMK AO2 FZRANO
KMML 121256Z AUTO 23008KT 10SM FEW060 M10/M12 A3023 RMK AO2 SLP262 T11001122 FZRANO
KMML 121156Z AUTO 24005KT 10SM CLR M12/M14 A3026 RMK AO2 SLP275 70001 T11171139 11111 21139 58016 FZRANO
KMML 121056Z AUTO 28007KT 10SM CLR M13/M15 A3028 RMK AO2 SLP281 T11281150 FZRANO
KMML 120956Z AUTO 28004KT 10SM CLR M13/M15 A3030 RMK AO2 SLP286 T11331150 FZRANO
KMML 120856Z AUTO 29004KT 10SM CLR M13/M14 A3031 RMK AO2 SLP291 T11281144 58005 FZRANO
KMML 120756Z AUTO 29005KT 10SM CLR M13/M14 A3032 RMK AO2 SLP292 T11281139 FZRANO
KMML 120656Z AUTO 31008KT 10SM CLR M12/M13 A3033 RMK AO2 SLP294 T11171133 FZRANO
KMML 120556Z AUTO 31009KT 10SM CLR M12/M13 A3033 RMK AO2 SLP295 T11171128 11067 21117 400501117 50006 FZRANO
KMML 120456Z AUTO 32009KT 10SM CLR M11/M13 A3034 RMK AO2 SLP294 T11061128 FZRANO
KMML 120356Z AUTO 33013KT 10SM CLR M10/M12 A3033 RMK AO2 SLP293 T11001122 FZRANO TSNO
KMML 120256Z AUTO 34015G23KT 10SM CLR M09/M13 A3031 RMK AO2 PK WND 35030/0209 SLP285 T10891128 51031 FZRANO
KMML 120156Z AUTO 34021KT 10SM CLR M08/M11 A3029 RMK AO2 PK WND 35027/0137 SLP278 T10831111 FZRANO TSNO
KMML 120056Z AUTO 34013KT 10SM CLR M07/M10 A3025 RMK AO2 SLP265 T10721100 FZRANO
KMML 112356Z AUTO 34021G27KT 10SM CLR M07/M10 A3022 RMK AO2 PK WND 34033/2320 SLP251 T10671100 11006 21067 53041 FZRANO
KMML 112305Z AUTO 34017G30KT 10SM SCT020 M06/M09 A3018 RMK AO2 PK WND 34026/2259 FZRANO
KMML 112256Z AUTO 34024G30KT 10SM BKN020 M06/M09 A3017 RMK AO2 PK WND 34032/2218 SLP234 T10561089 FZRANO
KMML 112156Z AUTO 34025G30KT 10SM OVC018 M04/M08 A3013 RMK AO2 PK WND 35037/2107 SLP220 T10391078 FZRANO
KMML 112056Z AUTO 35023G33KT 10SM OVC018 M03/M06 A3009 RMK AO2 PK WND 35038/2037 SLP206 T10331061 53049 FZRANO
KMML 112012Z AUTO 35024G36KT 10SM OVC016 M02/M05 A3005 RMK AO2 PK WND 35036/2005 FZRANO
KMML 111956Z AUTO 34030G35KT 10SM OVC014 M02/M04 A3003 RMK AO2 PK WND 35039/1928 SLP185 T10171044 FZRANO
KMML 111856Z AUTO 34031G38KT 10SM OVC012 M01/M03 A2999 RMK AO2 PK WND 34038/1856 SLP169 T10111033 FZRANO
KMML 111756Z AUTO 35028G38KT 10SM OVC012 M01/M02 A2994 RMK AO2 PK WND 35038/1753 SLP154 60001 T10061022 10044 21006 51042 FZRANO
KMML 111656Z AUTO 34025G34KT 10SM OVC012 02/00 A2989 RMK AO2 PK WND 34034/1654 UPB03E20 SLP137 P0000 T00220000 FZRANO
KMML 111618Z AUTO 34025G32KT 10SM UP OVC010 02/01 A2987 RMK AO2 PK WND 34032/1617 UPB03 P0000 FZRANO
KMML 111606Z AUTO 34025G30KT 10SM UP OVC008 02/01 A2986 RMK AO2 PK WND 34030/1605 UPB03 CIG 007V011 P0000 FZRANO
KMML 111556Z AUTO 33021G26KT 7SM OVC010 02/01 A2987 RMK AO2 PK WND 34031/1527 RAB16E27UPB27E39 CIG 007V012 PRESRR SLP128 P0000 T00220011 FZRANO
KMML 111518Z AUTO 34021G25KT 10SM -RA OVC014 03/01 A2983 RMK AO2 RAB16 P0000
KMML 111456Z AUTO 33018G29KT 10SM OVC016 03/01 A2981 RMK AO2 PK WND 34029/1453 SLP110 60001 T00330011 53023
KMML 111356Z AUTO 32020KT 10SM OVC020 03/01 A2978 RMK AO2 RAE17 SLP097 P0000 T00280006
KMML 111256Z AUTO 31018KT 10SM -RA SCT018 OVC026 03/01 A2976 RMK AO2 PK WND 31034/1217 RAB13 SLP093 P0001 T00280011
KMML 111239Z AUTO 32020KT 10SM -RA BKN018 BKN023 OVC035 03/01 A2976 RMK AO2 PK WND 31034/1217 RAB13 P0001
KMML 111156Z AUTO 31023G27KT 10SM BKN095 OVC120 04/M03 A2974 RMK AO2 PK WND 30028/1119 SLP084 T00441028 10050 20022 56009
KMML 111056Z AUTO 29015G19KT 10SM SCT120 04/M03 A2975 RMK AO2 SLP087 T00391033
KMML 110956Z AUTO 31007KT 10SM FEW120 03/M03 A2976 RMK AO2 SLP090 T00331033
KMML 110856Z AUTO 28010KT 10SM BKN120 05/M03 A2977 RMK AO2 SLP093 T00501028 58036
KMML 110756Z AUTO 27008KT 10SM OVC120 03/M02 A2982 RMK AO2 SLP112 T00331022
KMML 110656Z AUTO 26010KT 10SM OVC110 03/M02 A2986 RMK AO2 SLP124 T00281022
KMML 110556Z AUTO 24009KT 10SM FEW080 OVC110 02/M02 A2988 RMK AO2 RAB28E37UPB37E41 SLP133 P0000 60000 T00221022 10028 21006 400391006 58028 FZRANO
KMML 110456Z AUTO 22005KT 10SM SCT095 01/M03 A2993 RMK AO2 SLP149 T00111028 FZRANO
KMML 110356Z AUTO 21004KT 10SM BKN100 01/M03 A2996 RMK AO2 SLP160 T00061028 FZRANO
KMML 110256Z AUTO 18005KT 10SM SCT110 M01/M03 A2997 RMK AO2 SLP165 T10061033 58025 FZRANO